sensor_id;sensor_type;location;lat;lon;timestamp;temperature;humidity
81321;DHT22;70785;52.570;5.638;2023-07-24T00:01:08;17.60;71.90
81321;DHT22;70785;52.570;5.638;2023-07-24T00:03:35;17.60;71.90
81321;DHT22;70785;52.570;5.638;2023-07-24T00:06:01;17.60;72.00
81321;DHT22;70785;52.570;5.638;2023-07-24T00:08:27;17.50;72.00
81321;DHT22;70785;52.570;5.638;2023-07-24T00:10:53;17.50;71.90
81321;DHT22;70785;52.570;5.638;2023-07-24T00:13:20;17.50;72.00
81321;DHT22;70785;52.570;5.638;2023-07-24T00:15:46;17.50;72.00
81321;DHT22;70785;52.570;5.638;2023-07-24T00:18:12;17.50;72.00
81321;DHT22;70785;52.570;5.638;2023-07-24T00:20:38;17.50;71.90
81321;DHT22;70785;52.570;5.638;2023-07-24T00:23:04;17.40;71.90
81321;DHT22;70785;52.570;5.638;2023-07-24T00:25:30;17.40;71.90
81321;DHT22;70785;52.570;5.638;2023-07-24T00:27:56;17.40;71.90
81321;DHT22;70785;52.570;5.638;2023-07-24T00:30:22;17.40;71.90
81321;DHT22;70785;52.570;5.638;2023-07-24T00:32:50;17.30;72.00
81321;DHT22;70785;52.570;5.638;2023-07-24T00:35:16;17.30;72.00
81321;DHT22;70785;52.570;5.638;2023-07-24T00:37:42;17.20;72.10
81321;DHT22;70785;52.570;5.638;2023-07-24T00:40:08;17.20;72.10
81321;DHT22;70785;52.570;5.638;2023-07-24T00:42:34;17.20;72.10
81321;DHT22;70785;52.570;5.638;2023-07-24T00:45:00;17.20;72.20
81321;DHT22;70785;52.570;5.638;2023-07-24T00:47:27;17.20;72.20
81321;DHT22;70785;52.570;5.638;2023-07-24T00:49:54;17.20;72.20
81321;DHT22;70785;52.570;5.638;2023-07-24T00:52:20;17.20;72.20
81321;DHT22;70785;52.570;5.638;2023-07-24T00:54:46;17.20;72.20
81321;DHT22;70785;52.570;5.638;2023-07-24T00:57:13;17.20;72.20
81321;DHT22;70785;52.570;5.638;2023-07-24T00:59:40;17.20;72.20
81321;DHT22;70785;52.570;5.638;2023-07-24T01:02:08;17.10;72.30
81321;DHT22;70785;52.570;5.638;2023-07-24T01:04:34;17.00;72.40
81321;DHT22;70785;52.570;5.638;2023-07-24T01:07:00;17.00;72.50
81321;DHT22;70785;52.570;5.638;2023-07-24T01:09:26;17.00;72.50
81321;DHT22;70785;52.570;5.638;2023-07-24T01:12:13;17.00;72.50
81321;DHT22;70785;52.570;5.638;2023-07-24T01:14:55;17.00;72.60
81321;DHT22;70785;52.570;5.638;2023-07-24T01:17:24;16.90;72.60
81321;DHT22;70785;52.570;5.638;2023-07-24T01:19:58;16.90;72.70
81321;DHT22;70785;52.570;5.638;2023-07-24T01:27:27;16.90;72.90
81321;DHT22;70785;52.570;5.638;2023-07-24T01:29:53;16.90;72.90
81321;DHT22;70785;52.570;5.638;2023-07-24T01:32:20;17.00;72.90
81321;DHT22;70785;52.570;5.638;2023-07-24T01:34:47;17.00;72.90
81321;DHT22;70785;52.570;5.638;2023-07-24T01:37:14;17.00;73.00
81321;DHT22;70785;52.570;5.638;2023-07-24T01:39:41;17.00;73.00
81321;DHT22;70785;52.570;5.638;2023-07-24T01:42:08;17.00;73.00
81321;DHT22;70785;52.570;5.638;2023-07-24T01:44:34;17.10;73.00
81321;DHT22;70785;52.570;5.638;2023-07-24T01:47:00;17.20;73.00
81321;DHT22;70785;52.570;5.638;2023-07-24T01:49:26;17.20;73.10
81321;DHT22;70785;52.570;5.638;2023-07-24T01:51:52;17.20;73.00
81321;DHT22;70785;52.570;5.638;2023-07-24T01:54:18;17.20;73.00
81321;DHT22;70785;52.570;5.638;2023-07-24T01:56:44;17.20;73.00
81321;DHT22;70785;52.570;5.638;2023-07-24T01:59:11;17.20;73.00
81321;DHT22;70785;52.570;5.638;2023-07-24T02:01:37;17.30;73.00
81321;DHT22;70785;52.570;5.638;2023-07-24T02:04:03;17.30;72.90
81321;DHT22;70785;52.570;5.638;2023-07-24T02:06:29;17.40;72.90
81321;DHT22;70785;52.570;5.638;2023-07-24T02:08:55;17.40;72.80
81321;DHT22;70785;52.570;5.638;2023-07-24T02:11:21;17.40;72.80
81321;DHT22;70785;52.570;5.638;2023-07-24T02:13:47;17.40;72.70
81321;DHT22;70785;52.570;5.638;2023-07-24T02:16:14;17.40;72.60
81321;DHT22;70785;52.570;5.638;2023-07-24T02:18:42;17.40;72.60
81321;DHT22;70785;52.570;5.638;2023-07-24T02:21:08;17.40;72.60
81321;DHT22;70785;52.570;5.638;2023-07-24T02:23:35;17.50;72.50
81321;DHT22;70785;52.570;5.638;2023-07-24T02:26:01;17.40;72.50
81321;DHT22;70785;52.570;5.638;2023-07-24T02:28:27;17.40;72.50
81321;DHT22;70785;52.570;5.638;2023-07-24T02:30:53;17.40;72.50
81321;DHT22;70785;52.570;5.638;2023-07-24T02:33:25;17.40;72.50
81321;DHT22;70785;52.570;5.638;2023-07-24T02:35:52;17.40;72.50
81321;DHT22;70785;52.570;5.638;2023-07-24T02:38:19;17.30;72.50
81321;DHT22;70785;52.570;5.638;2023-07-24T02:40:45;17.30;72.50
81321;DHT22;70785;52.570;5.638;2023-07-24T02:43:11;17.20;72.60
81321;DHT22;70785;52.570;5.638;2023-07-24T02:45:38;17.20;72.50
81321;DHT22;70785;52.570;5.638;2023-07-24T02:48:05;17.20;72.60
81321;DHT22;70785;52.570;5.638;2023-07-24T02:50:33;17.20;72.50
81321;DHT22;70785;52.570;5.638;2023-07-24T02:52:59;17.20;72.50
81321;DHT22;70785;52.570;5.638;2023-07-24T02:55:25;17.20;72.50
81321;DHT22;70785;52.570;5.638;2023-07-24T02:57:51;17.20;72.50
81321;DHT22;70785;52.570;5.638;2023-07-24T03:00:17;17.20;72.50
81321;DHT22;70785;52.570;5.638;2023-07-24T03:02:43;17.10;72.50
81321;DHT22;70785;52.570;5.638;2023-07-24T03:05:10;17.00;72.60
81321;DHT22;70785;52.570;5.638;2023-07-24T03:07:36;17.00;72.60
81321;DHT22;70785;52.570;5.638;2023-07-24T03:10:03;17.00;72.70
81321;DHT22;70785;52.570;5.638;2023-07-24T03:12:30;17.00;72.80
81321;DHT22;70785;52.570;5.638;2023-07-24T03:14:56;17.00;72.80
81321;DHT22;70785;52.570;5.638;2023-07-24T03:17:22;16.90;72.90
81321;DHT22;70785;52.570;5.638;2023-07-24T03:19:49;16.90;73.00
81321;DHT22;70785;52.570;5.638;2023-07-24T03:22:15;16.90;73.00
81321;DHT22;70785;52.570;5.638;2023-07-24T03:24:41;16.90;73.10
81321;DHT22;70785;52.570;5.638;2023-07-24T03:27:07;16.90;73.10
81321;DHT22;70785;52.570;5.638;2023-07-24T03:29:33;16.90;73.20
81321;DHT22;70785;52.570;5.638;2023-07-24T03:31:59;16.90;73.20
81321;DHT22;70785;52.570;5.638;2023-07-24T03:34:25;16.90;73.30
81321;DHT22;70785;52.570;5.638;2023-07-24T03:36:52;16.90;73.30
81321;DHT22;70785;52.570;5.638;2023-07-24T03:39:18;16.90;73.30
81321;DHT22;70785;52.570;5.638;2023-07-24T03:41:44;16.90;73.40
81321;DHT22;70785;52.570;5.638;2023-07-24T03:44:10;16.90;73.40
81321;DHT22;70785;52.570;5.638;2023-07-24T03:46:36;16.90;73.40
81321;DHT22;70785;52.570;5.638;2023-07-24T03:49:02;16.90;73.50
81321;DHT22;70785;52.570;5.638;2023-07-24T03:51:29;16.90;73.50
81321;DHT22;70785;52.570;5.638;2023-07-24T03:53:55;16.90;73.50
81321;DHT22;70785;52.570;5.638;2023-07-24T03:56:21;16.90;73.50
81321;DHT22;70785;52.570;5.638;2023-07-24T03:58:47;16.90;73.50
81321;DHT22;70785;52.570;5.638;2023-07-24T04:01:13;16.90;73.40
81321;DHT22;70785;52.570;5.638;2023-07-24T04:03:39;16.90;73.50
81321;DHT22;70785;52.570;5.638;2023-07-24T04:06:05;16.90;73.50
81321;DHT22;70785;52.570;5.638;2023-07-24T04:08:31;16.90;73.50
81321;DHT22;70785;52.570;5.638;2023-07-24T04:10:57;16.90;73.50
81321;DHT22;70785;52.570;5.638;2023-07-24T04:13:23;16.90;73.40
81321;DHT22;70785;52.570;5.638;2023-07-24T04:15:50;17.00;73.50
81321;DHT22;70785;52.570;5.638;2023-07-24T04:18:16;17.00;73.40
81321;DHT22;70785;52.570;5.638;2023-07-24T04:20:42;17.00;73.40
81321;DHT22;70785;52.570;5.638;2023-07-24T04:23:08;17.00;73.40
81321;DHT22;70785;52.570;5.638;2023-07-24T04:25:34;17.00;73.40
81321;DHT22;70785;52.570;5.638;2023-07-24T04:28:00;17.00;73.30
81321;DHT22;70785;52.570;5.638;2023-07-24T04:30:26;17.00;73.40
81321;DHT22;70785;52.570;5.638;2023-07-24T04:32:52;17.00;73.40
81321;DHT22;70785;52.570;5.638;2023-07-24T04:35:18;17.00;73.40
81321;DHT22;70785;52.570;5.638;2023-07-24T04:37:45;17.00;73.40
81321;DHT22;70785;52.570;5.638;2023-07-24T04:40:11;17.00;73.40
81321;DHT22;70785;52.570;5.638;2023-07-24T04:42:37;17.00;73.40
81321;DHT22;70785;52.570;5.638;2023-07-24T04:45:04;17.00;73.40
81321;DHT22;70785;52.570;5.638;2023-07-24T04:47:30;17.00;73.40
81321;DHT22;70785;52.570;5.638;2023-07-24T04:49:56;17.10;73.40
81321;DHT22;70785;52.570;5.638;2023-07-24T04:52:22;17.20;73.40
81321;DHT22;70785;52.570;5.638;2023-07-24T04:54:48;17.20;73.40
81321;DHT22;70785;52.570;5.638;2023-07-24T04:57:14;17.20;73.30
81321;DHT22;70785;52.570;5.638;2023-07-24T04:59:40;17.20;73.20
81321;DHT22;70785;52.570;5.638;2023-07-24T05:02:06;17.30;73.20
81321;DHT22;70785;52.570;5.638;2023-07-24T05:04:32;17.30;73.10
81321;DHT22;70785;52.570;5.638;2023-07-24T05:06:58;17.40;73.00
81321;DHT22;70785;52.570;5.638;2023-07-24T05:09:25;17.40;73.00
81321;DHT22;70785;52.570;5.638;2023-07-24T05:11:51;17.40;72.90
81321;DHT22;70785;52.570;5.638;2023-07-24T05:14:17;17.40;72.80
81321;DHT22;70785;52.570;5.638;2023-07-24T05:16:43;17.50;72.80
81321;DHT22;70785;52.570;5.638;2023-07-24T05:19:09;17.40;72.70
81321;DHT22;70785;52.570;5.638;2023-07-24T05:21:35;17.50;72.70
81321;DHT22;70785;52.570;5.638;2023-07-24T05:24:01;17.40;72.60
81321;DHT22;70785;52.570;5.638;2023-07-24T05:26:27;17.40;72.60
81321;DHT22;70785;52.570;5.638;2023-07-24T05:28:53;17.40;72.60
81321;DHT22;70785;52.570;5.638;2023-07-24T05:31:19;17.40;72.70
81321;DHT22;70785;52.570;5.638;2023-07-24T05:33:46;17.40;72.60
81321;DHT22;70785;52.570;5.638;2023-07-24T05:36:12;17.50;72.60
81321;DHT22;70785;52.570;5.638;2023-07-24T05:38:38;17.50;72.50
81321;DHT22;70785;52.570;5.638;2023-07-24T05:41:04;17.60;72.40
81321;DHT22;70785;52.570;5.638;2023-07-24T05:43:31;17.80;72.20
81321;DHT22;70785;52.570;5.638;2023-07-24T05:45:58;17.80;72.10
81321;DHT22;70785;52.570;5.638;2023-07-24T05:48:25;17.80;72.00
81321;DHT22;70785;52.570;5.638;2023-07-24T05:50:51;17.90;71.90
81321;DHT22;70785;52.570;5.638;2023-07-24T05:53:17;18.00;71.80
81321;DHT22;70785;52.570;5.638;2023-07-24T05:55:43;18.00;71.70
81321;DHT22;70785;52.570;5.638;2023-07-24T05:58:10;18.00;71.60
81321;DHT22;70785;52.570;5.638;2023-07-24T06:00:36;18.10;71.50
81321;DHT22;70785;52.570;5.638;2023-07-24T06:03:03;18.20;71.30
81321;DHT22;70785;52.570;5.638;2023-07-24T06:05:29;18.30;71.00
81321;DHT22;70785;52.570;5.638;2023-07-24T06:07:55;18.30;70.80
81321;DHT22;70785;52.570;5.638;2023-07-24T06:10:21;18.40;70.80
81321;DHT22;70785;52.570;5.638;2023-07-24T06:12:47;18.40;70.70
81321;DHT22;70785;52.570;5.638;2023-07-24T06:15:14;18.50;70.60
81321;DHT22;70785;52.570;5.638;2023-07-24T06:17:40;18.50;70.50
81321;DHT22;70785;52.570;5.638;2023-07-24T06:20:06;18.50;70.40
81321;DHT22;70785;52.570;5.638;2023-07-24T06:22:33;18.50;70.40
81321;DHT22;70785;52.570;5.638;2023-07-24T06:24:59;18.50;70.30
81321;DHT22;70785;52.570;5.638;2023-07-24T06:27:25;18.60;70.30
81321;DHT22;70785;52.570;5.638;2023-07-24T06:29:51;18.60;70.20
81321;DHT22;70785;52.570;5.638;2023-07-24T06:32:17;18.70;70.20
81321;DHT22;70785;52.570;5.638;2023-07-24T06:34:43;18.70;70.00
81321;DHT22;70785;52.570;5.638;2023-07-24T06:37:09;18.80;70.00
81321;DHT22;70785;52.570;5.638;2023-07-24T06:39:35;18.80;69.90
81321;DHT22;70785;52.570;5.638;2023-07-24T06:42:01;18.90;69.90
81321;DHT22;70785;52.570;5.638;2023-07-24T06:44:28;19.00;69.80
81321;DHT22;70785;52.570;5.638;2023-07-24T06:46:54;19.00;69.60
81321;DHT22;70785;52.570;5.638;2023-07-24T06:49:20;19.10;69.40
81321;DHT22;70785;52.570;5.638;2023-07-24T06:51:46;19.10;69.30
81321;DHT22;70785;52.570;5.638;2023-07-24T06:54:12;19.10;69.00
81321;DHT22;70785;52.570;5.638;2023-07-24T06:56:38;19.10;68.90
81321;DHT22;70785;52.570;5.638;2023-07-24T06:59:04;19.10;68.90
81321;DHT22;70785;52.570;5.638;2023-07-24T07:01:30;19.10;68.90
81321;DHT22;70785;52.570;5.638;2023-07-24T07:03:56;19.10;68.80
81321;DHT22;70785;52.570;5.638;2023-07-24T07:06:22;19.20;68.80
81321;DHT22;70785;52.570;5.638;2023-07-24T07:08:48;19.20;68.80
81321;DHT22;70785;52.570;5.638;2023-07-24T07:11:14;19.20;68.70
81321;DHT22;70785;52.570;5.638;2023-07-24T07:13:41;19.20;68.60
81321;DHT22;70785;52.570;5.638;2023-07-24T07:16:07;19.20;68.60
81321;DHT22;70785;52.570;5.638;2023-07-24T07:18:33;19.20;68.50
81321;DHT22;70785;52.570;5.638;2023-07-24T07:20:59;19.20;68.60
81321;DHT22;70785;52.570;5.638;2023-07-24T07:23:25;19.20;68.60
81321;DHT22;70785;52.570;5.638;2023-07-24T07:25:51;19.20;68.60
81321;DHT22;70785;52.570;5.638;2023-07-24T07:28:18;19.20;68.50
81321;DHT22;70785;52.570;5.638;2023-07-24T07:30:45;19.20;68.50
81321;DHT22;70785;52.570;5.638;2023-07-24T07:33:11;19.20;68.40
81321;DHT22;70785;52.570;5.638;2023-07-24T07:35:37;19.20;68.30
81321;DHT22;70785;52.570;5.638;2023-07-24T07:38:03;19.30;68.30
81321;DHT22;70785;52.570;5.638;2023-07-24T07:40:29;19.40;68.20
81321;DHT22;70785;52.570;5.638;2023-07-24T07:42:56;19.50;68.00
81321;DHT22;70785;52.570;5.638;2023-07-24T07:45:23;19.70;68.00
81321;DHT22;70785;52.570;5.638;2023-07-24T07:47:50;19.70;67.80
81321;DHT22;70785;52.570;5.638;2023-07-24T07:50:16;19.90;67.80
81321;DHT22;70785;52.570;5.638;2023-07-24T07:52:42;20.00;67.60
81321;DHT22;70785;52.570;5.638;2023-07-24T07:55:08;19.90;67.30
81321;DHT22;70785;52.570;5.638;2023-07-24T07:57:35;19.80;67.40
81321;DHT22;70785;52.570;5.638;2023-07-24T08:00:03;19.70;67.40
81321;DHT22;70785;52.570;5.638;2023-07-24T08:02:31;19.80;67.40
81321;DHT22;70785;52.570;5.638;2023-07-24T08:04:58;19.90;67.20
81321;DHT22;70785;52.570;5.638;2023-07-24T08:07:24;20.00;67.20
81321;DHT22;70785;52.570;5.638;2023-07-24T08:09:50;20.10;67.10
81321;DHT22;70785;52.570;5.638;2023-07-24T08:12:19;20.30;66.70
81321;DHT22;70785;52.570;5.638;2023-07-24T08:14:45;20.30;66.50
81321;DHT22;70785;52.570;5.638;2023-07-24T08:17:11;20.30;66.50
81321;DHT22;70785;52.570;5.638;2023-07-24T08:19:37;20.20;66.30
81321;DHT22;70785;52.570;5.638;2023-07-24T08:22:03;20.30;66.10
81321;DHT22;70785;52.570;5.638;2023-07-24T08:24:36;20.40;65.90
81321;DHT22;70785;52.570;5.638;2023-07-24T08:27:03;20.50;65.70
81321;DHT22;70785;52.570;5.638;2023-07-24T08:29:29;20.50;65.50
81321;DHT22;70785;52.570;5.638;2023-07-24T08:31:55;20.60;65.30
81321;DHT22;70785;52.570;5.638;2023-07-24T08:34:22;20.50;65.20
81321;DHT22;70785;52.570;5.638;2023-07-24T08:36:48;20.50;65.20
81321;DHT22;70785;52.570;5.638;2023-07-24T08:39:14;20.30;65.30
81321;DHT22;70785;52.570;5.638;2023-07-24T08:41:40;20.30;65.40
81321;DHT22;70785;52.570;5.638;2023-07-24T08:44:09;20.10;65.60
81321;DHT22;70785;52.570;5.638;2023-07-24T08:46:37;20.20;65.70
81321;DHT22;70785;52.570;5.638;2023-07-24T08:49:04;20.20;65.80
81321;DHT22;70785;52.570;5.638;2023-07-24T08:51:31;20.30;65.70
81321;DHT22;70785;52.570;5.638;2023-07-24T08:53:59;20.60;65.60
81321;DHT22;70785;52.570;5.638;2023-07-24T08:56:26;20.90;65.20
81321;DHT22;70785;52.570;5.638;2023-07-24T08:58:52;21.10;64.90
81321;DHT22;70785;52.570;5.638;2023-07-24T09:01:18;21.40;64.20
81321;DHT22;70785;52.570;5.638;2023-07-24T09:03:44;21.60;63.70
81321;DHT22;70785;52.570;5.638;2023-07-24T09:06:10;21.70;63.20
81321;DHT22;70785;52.570;5.638;2023-07-24T09:08:39;21.90;62.80
81321;DHT22;70785;52.570;5.638;2023-07-24T09:11:06;22.00;62.50
81321;DHT22;70785;52.570;5.638;2023-07-24T09:13:33;22.20;62.20
81321;DHT22;70785;52.570;5.638;2023-07-24T09:15:59;22.20;62.20
81321;DHT22;70785;52.570;5.638;2023-07-24T09:18:25;22.30;61.70
81321;DHT22;70785;52.570;5.638;2023-07-24T09:20:51;22.30;61.80
81321;DHT22;70785;52.570;5.638;2023-07-24T09:23:26;22.40;61.50
81321;DHT22;70785;52.570;5.638;2023-07-24T09:25:53;22.30;60.70
81321;DHT22;70785;52.570;5.638;2023-07-24T09:28:19;22.20;60.90
81321;DHT22;70785;52.570;5.638;2023-07-24T09:30:56;22.10;61.10
81321;DHT22;70785;52.570;5.638;2023-07-24T09:33:33;22.00;61.10
81321;DHT22;70785;52.570;5.638;2023-07-24T09:36:01;21.90;61.40
81321;DHT22;70785;52.570;5.638;2023-07-24T09:38:27;21.80;61.60
81321;DHT22;70785;52.570;5.638;2023-07-24T09:40:55;21.90;61.60
81321;DHT22;70785;52.570;5.638;2023-07-24T09:43:23;21.90;61.50
81321;DHT22;70785;52.570;5.638;2023-07-24T09:45:50;21.70;61.60
81321;DHT22;70785;52.570;5.638;2023-07-24T09:48:18;21.70;61.70
81321;DHT22;70785;52.570;5.638;2023-07-24T09:50:47;21.70;61.60
81321;DHT22;70785;52.570;5.638;2023-07-24T09:53:27;21.70;61.50
81321;DHT22;70785;52.570;5.638;2023-07-24T09:56:01;21.90;61.00
81321;DHT22;70785;52.570;5.638;2023-07-24T09:58:28;22.20;60.70
81321;DHT22;70785;52.570;5.638;2023-07-24T10:00:55;22.60;60.30
81321;DHT22;70785;52.570;5.638;2023-07-24T10:03:22;22.60;60.00
81321;DHT22;70785;52.570;5.638;2023-07-24T10:05:49;22.40;60.00
81321;DHT22;70785;52.570;5.638;2023-07-24T10:08:17;22.10;60.30
81321;DHT22;70785;52.570;5.638;2023-07-24T10:10:44;21.90;60.60
81321;DHT22;70785;52.570;5.638;2023-07-24T10:13:12;21.70;61.10
81321;DHT22;70785;52.570;5.638;2023-07-24T10:15:40;21.70;61.40
81321;DHT22;70785;52.570;5.638;2023-07-24T10:18:07;21.70;61.60
81321;DHT22;70785;52.570;5.638;2023-07-24T10:23:05;21.60;61.40
81321;DHT22;70785;52.570;5.638;2023-07-24T10:25:33;21.50;61.60
81321;DHT22;70785;52.570;5.638;2023-07-24T10:28:03;21.40;61.70
81321;DHT22;70785;52.570;5.638;2023-07-24T10:30:40;21.30;61.90
81321;DHT22;70785;52.570;5.638;2023-07-24T10:33:17;21.40;62.00
81321;DHT22;70785;52.570;5.638;2023-07-24T10:35:46;21.40;62.00
81321;DHT22;70785;52.570;5.638;2023-07-24T10:38:16;21.50;62.00
81321;DHT22;70785;52.570;5.638;2023-07-24T10:40:45;21.50;62.00
81321;DHT22;70785;52.570;5.638;2023-07-24T10:43:13;21.50;62.00
81321;DHT22;70785;52.570;5.638;2023-07-24T10:48:12;21.50;62.00
81321;DHT22;70785;52.570;5.638;2023-07-24T10:50:40;21.70;61.80
81321;DHT22;70785;52.570;5.638;2023-07-24T10:53:08;21.90;61.20
81321;DHT22;70785;52.570;5.638;2023-07-24T10:55:34;22.00;60.90
81321;DHT22;70785;52.570;5.638;2023-07-24T10:58:00;22.20;60.20
81321;DHT22;70785;52.570;5.638;2023-07-24T11:00:26;22.30;60.00
81321;DHT22;70785;52.570;5.638;2023-07-24T11:02:54;22.50;59.80
81321;DHT22;70785;52.570;5.638;2023-07-24T11:05:23;22.60;59.50
81321;DHT22;70785;52.570;5.638;2023-07-24T11:07:50;22.50;59.00
81321;DHT22;70785;52.570;5.638;2023-07-24T11:10:17;22.40;59.20
81321;DHT22;70785;52.570;5.638;2023-07-24T11:12:44;22.40;59.50
81321;DHT22;70785;52.570;5.638;2023-07-24T11:15:11;22.60;59.40
81321;DHT22;70785;52.570;5.638;2023-07-24T11:17:39;22.70;59.20
81321;DHT22;70785;52.570;5.638;2023-07-24T11:20:13;22.70;59.00
81321;DHT22;70785;52.570;5.638;2023-07-24T11:22:41;22.80;59.00
81321;DHT22;70785;52.570;5.638;2023-07-24T11:25:08;22.90;59.00
81321;DHT22;70785;52.570;5.638;2023-07-24T11:27:41;23.00;58.60
81321;DHT22;70785;52.570;5.638;2023-07-24T11:30:12;23.10;58.30
81321;DHT22;70785;52.570;5.638;2023-07-24T11:32:44;23.00;58.70
81321;DHT22;70785;52.570;5.638;2023-07-24T11:35:12;22.90;58.70
81321;DHT22;70785;52.570;5.638;2023-07-24T11:37:38;22.70;58.70
81321;DHT22;70785;52.570;5.638;2023-07-24T11:40:05;22.60;59.00
81321;DHT22;70785;52.570;5.638;2023-07-24T11:42:39;22.70;59.10
81321;DHT22;70785;52.570;5.638;2023-07-24T11:45:07;22.70;59.00
81321;DHT22;70785;52.570;5.638;2023-07-24T11:47:46;22.80;58.70
81321;DHT22;70785;52.570;5.638;2023-07-24T11:50:12;22.80;58.50
81321;DHT22;70785;52.570;5.638;2023-07-24T11:52:44;22.60;58.20
81321;DHT22;70785;52.570;5.638;2023-07-24T11:55:12;22.60;58.20
81321;DHT22;70785;52.570;5.638;2023-07-24T11:57:38;22.80;57.90
81321;DHT22;70785;52.570;5.638;2023-07-24T12:00:16;23.00;57.60
81321;DHT22;70785;52.570;5.638;2023-07-24T12:02:42;23.10;57.60
81321;DHT22;70785;52.570;5.638;2023-07-24T12:05:10;23.00;58.10
81321;DHT22;70785;52.570;5.638;2023-07-24T12:07:36;22.70;59.30
81321;DHT22;70785;52.570;5.638;2023-07-24T12:10:04;22.30;60.10
81321;DHT22;70785;52.570;5.638;2023-07-24T12:12:59;22.10;60.70
81321;DHT22;70785;52.570;5.638;2023-07-24T12:15:26;22.00;61.20
81321;DHT22;70785;52.570;5.638;2023-07-24T12:17:52;22.00;61.30
81321;DHT22;70785;52.570;5.638;2023-07-24T12:20:19;22.20;61.30
81321;DHT22;70785;52.570;5.638;2023-07-24T12:22:45;22.60;61.20
81321;DHT22;70785;52.570;5.638;2023-07-24T12:25:12;22.90;60.80
81321;DHT22;70785;52.570;5.638;2023-07-24T12:27:38;23.00;60.50
81321;DHT22;70785;52.570;5.638;2023-07-24T12:30:06;22.90;60.60
81321;DHT22;70785;52.570;5.638;2023-07-24T12:32:32;22.80;60.70
81321;DHT22;70785;52.570;5.638;2023-07-24T12:34:58;22.70;60.80
81321;DHT22;70785;52.570;5.638;2023-07-24T12:37:24;22.70;60.80
81321;DHT22;70785;52.570;5.638;2023-07-24T12:39:50;22.80;60.90
81321;DHT22;70785;52.570;5.638;2023-07-24T12:42:16;23.00;60.70
81321;DHT22;70785;52.570;5.638;2023-07-24T12:44:43;23.10;60.50
81321;DHT22;70785;52.570;5.638;2023-07-24T12:47:10;22.90;60.50
81321;DHT22;70785;52.570;5.638;2023-07-24T12:49:36;22.70;60.80
81321;DHT22;70785;52.570;5.638;2023-07-24T12:52:03;22.50;60.80
81321;DHT22;70785;52.570;5.638;2023-07-24T12:54:29;22.60;60.90
81321;DHT22;70785;52.570;5.638;2023-07-24T12:56:55;22.60;60.80
81321;DHT22;70785;52.570;5.638;2023-07-24T12:59:22;22.70;60.80
81321;DHT22;70785;52.570;5.638;2023-07-24T13:01:48;22.60;61.00
81321;DHT22;70785;52.570;5.638;2023-07-24T13:04:14;22.50;61.30
81321;DHT22;70785;52.570;5.638;2023-07-24T13:06:40;22.20;61.70
81321;DHT22;70785;52.570;5.638;2023-07-24T13:09:07;22.00;62.10
81321;DHT22;70785;52.570;5.638;2023-07-24T13:11:33;21.70;62.40
81321;DHT22;70785;52.570;5.638;2023-07-24T13:13:59;21.60;62.70
81321;DHT22;70785;52.570;5.638;2023-07-24T13:16:27;21.50;63.00
81321;DHT22;70785;52.570;5.638;2023-07-24T13:18:53;21.30;63.10
81321;DHT22;70785;52.570;5.638;2023-07-24T13:21:19;21.10;63.10
81321;DHT22;70785;52.570;5.638;2023-07-24T13:23:45;20.90;62.90
81321;DHT22;70785;52.570;5.638;2023-07-24T13:26:12;20.80;63.00
81321;DHT22;70785;52.570;5.638;2023-07-24T13:28:39;20.60;63.30
81321;DHT22;70785;52.570;5.638;2023-07-24T13:31:16;20.50;63.70
81321;DHT22;70785;52.570;5.638;2023-07-24T13:33:43;20.30;64.20
81321;DHT22;70785;52.570;5.638;2023-07-24T13:36:09;20.30;64.40
81321;DHT22;70785;52.570;5.638;2023-07-24T13:38:35;20.10;64.90
81321;DHT22;70785;52.570;5.638;2023-07-24T13:41:02;20.00;65.50
81321;DHT22;70785;52.570;5.638;2023-07-24T13:43:29;20.10;65.70
81321;DHT22;70785;52.570;5.638;2023-07-24T13:45:55;20.10;65.70
81321;DHT22;70785;52.570;5.638;2023-07-24T13:48:22;20.10;65.80
81321;DHT22;70785;52.570;5.638;2023-07-24T13:50:49;20.10;65.80
81321;DHT22;70785;52.570;5.638;2023-07-24T13:53:16;20.20;65.60
81321;DHT22;70785;52.570;5.638;2023-07-24T13:55:42;20.30;65.20
81321;DHT22;70785;52.570;5.638;2023-07-24T13:58:08;20.30;64.70
81321;DHT22;70785;52.570;5.638;2023-07-24T14:00:34;20.30;64.50
81321;DHT22;70785;52.570;5.638;2023-07-24T14:03:00;20.50;64.40
81321;DHT22;70785;52.570;5.638;2023-07-24T14:05:26;20.50;64.40
81321;DHT22;70785;52.570;5.638;2023-07-24T14:07:52;20.70;64.30
81321;DHT22;70785;52.570;5.638;2023-07-24T14:10:19;21.00;64.10
81321;DHT22;70785;52.570;5.638;2023-07-24T14:12:45;21.40;64.00
81321;DHT22;70785;52.570;5.638;2023-07-24T14:15:11;21.50;62.30
81321;DHT22;70785;52.570;5.638;2023-07-24T14:17:37;21.40;62.10
81321;DHT22;70785;52.570;5.638;2023-07-24T14:20:03;21.10;62.60
81321;DHT22;70785;52.570;5.638;2023-07-24T14:22:29;20.90;62.70
81321;DHT22;70785;52.570;5.638;2023-07-24T14:24:56;20.60;63.10
81321;DHT22;70785;52.570;5.638;2023-07-24T14:27:22;20.40;63.10
81321;DHT22;70785;52.570;5.638;2023-07-24T14:29:48;20.30;63.60
81321;DHT22;70785;52.570;5.638;2023-07-24T14:32:14;20.30;63.60
81321;DHT22;70785;52.570;5.638;2023-07-24T14:34:41;20.00;63.50
81321;DHT22;70785;52.570;5.638;2023-07-24T14:37:08;19.70;64.20
81321;DHT22;70785;52.570;5.638;2023-07-24T14:39:34;19.60;64.20
81321;DHT22;70785;52.570;5.638;2023-07-24T14:42:00;19.50;64.30
81321;DHT22;70785;52.570;5.638;2023-07-24T14:44:26;19.30;64.70
81321;DHT22;70785;52.570;5.638;2023-07-24T14:46:52;19.20;65.30
81321;DHT22;70785;52.570;5.638;2023-07-24T14:49:18;19.10;65.60
81321;DHT22;70785;52.570;5.638;2023-07-24T14:51:45;19.10;65.90
81321;DHT22;70785;52.570;5.638;2023-07-24T14:54:11;18.90;66.10
81321;DHT22;70785;52.570;5.638;2023-07-24T14:56:37;18.90;66.10
81321;DHT22;70785;52.570;5.638;2023-07-24T14:59:03;18.80;66.00
81321;DHT22;70785;52.570;5.638;2023-07-24T15:01:29;18.80;66.00
81321;DHT22;70785;52.570;5.638;2023-07-24T15:03:56;18.80;66.20
81321;DHT22;70785;52.570;5.638;2023-07-24T15:06:22;18.70;66.40
81321;DHT22;70785;52.570;5.638;2023-07-24T15:08:49;18.70;66.20
81321;DHT22;70785;52.570;5.638;2023-07-24T15:11:22;18.50;65.80
81321;DHT22;70785;52.570;5.638;2023-07-24T15:13:49;18.40;66.00
81321;DHT22;70785;52.570;5.638;2023-07-24T15:16:15;18.30;66.00
81321;DHT22;70785;52.570;5.638;2023-07-24T15:18:41;18.30;66.30
81321;DHT22;70785;52.570;5.638;2023-07-24T15:21:08;18.10;66.30
81321;DHT22;70785;52.570;5.638;2023-07-24T15:23:35;18.00;66.50
81321;DHT22;70785;52.570;5.638;2023-07-24T15:26:01;17.80;66.80
81321;DHT22;70785;52.570;5.638;2023-07-24T15:28:27;17.70;67.20
81321;DHT22;70785;52.570;5.638;2023-07-24T15:30:54;17.60;67.30
81321;DHT22;70785;52.570;5.638;2023-07-24T15:33:20;17.50;67.10
81321;DHT22;70785;52.570;5.638;2023-07-24T15:35:46;17.40;67.00
81321;DHT22;70785;52.570;5.638;2023-07-24T15:38:12;17.30;66.20